createdAt,value
2018-12-16T00:00:20.347Z,97714.41
2018-12-16T00:02:48.179Z,97716.14
2018-12-16T00:05:15.438Z,97723.73
2018-12-16T00:07:42.760Z,97719.70
2018-12-16T00:10:09.612Z,97719.16
2018-12-16T00:12:38.202Z,97723.13
2018-12-16T00:15:06.455Z,97727.81
2018-12-16T00:17:34.995Z,97726.62
2018-12-16T00:20:02.467Z,97721.27
2018-12-16T00:22:30.696Z,97720.16
2018-12-16T00:27:30.767Z,97720.22
2018-12-16T00:29:58.604Z,97720.17
2018-12-16T00:32:26.772Z,97719.14
2018-12-16T00:34:55.576Z,97721.05
2018-12-16T00:39:54.993Z,97715.89
2018-12-16T00:42:22.371Z,97721.73
2018-12-16T00:44:50.943Z,97722.67
2018-12-16T00:47:19.095Z,97721.64
2018-12-16T00:49:46.965Z,97725.02
2018-12-16T00:52:14.458Z,97729.55
2018-12-16T00:54:43.698Z,97729.98
2018-12-16T00:57:11.804Z,97737.16
2018-12-16T00:59:40.693Z,97739.56
2018-12-16T01:02:08.048Z,97739.34
2018-12-16T01:04:35.418Z,97742.62
2018-12-16T01:07:03.278Z,97744.37
2018-12-16T01:09:30.295Z,97746.47
2018-12-16T01:14:31.095Z,97748.34
2018-12-16T01:16:58.827Z,97749.99
2018-12-16T01:19:26.289Z,97750.17
2018-12-16T01:21:53.857Z,97744.96
2018-12-16T01:24:21.966Z,97745.00
2018-12-16T01:26:49.746Z,97738.42
2018-12-16T01:29:17.899Z,97739.06
2018-12-16T01:34:16.917Z,97738.55
2018-12-16T01:36:43.365Z,97730.53
2018-12-16T01:39:09.903Z,97731.23
2018-12-16T01:41:36.406Z,97726.89
2018-12-16T01:44:02.845Z,97722.64
2018-12-16T01:46:29.312Z,97718.72
2018-12-16T01:48:55.913Z,97711.27
2018-12-16T01:51:22.503Z,97708.95
2018-12-16T01:53:48.945Z,97711.70
2018-12-16T01:56:15.507Z,97711.16
2018-12-16T01:58:41.984Z,97711.06
2018-12-16T02:01:08.518Z,97706.98
2018-12-16T02:03:35.082Z,97706.19
2018-12-16T02:06:01.593Z,97701.40
2018-12-16T02:08:28.056Z,97704.43
2018-12-16T02:10:54.553Z,97705.34
2018-12-16T02:13:21.060Z,97700.74
2018-12-16T02:15:47.604Z,97697.69
2018-12-16T02:18:14.086Z,97706.08
2018-12-16T02:20:40.546Z,97697.09
2018-12-16T02:23:07.331Z,97704.68
2018-12-16T02:25:33.818Z,97693.66
2018-12-16T02:28:00.466Z,97693.83
2018-12-16T02:30:26.910Z,97697.17
2018-12-16T02:32:53.804Z,97685.64
2018-12-16T02:35:20.512Z,97687.23
2018-12-16T02:37:46.986Z,97686.52
2018-12-16T02:40:13.502Z,97684.53
2018-12-16T02:42:40.117Z,97671.06
2018-12-16T02:45:06.607Z,97680.58
2018-12-16T02:47:33.280Z,97687.06
2018-12-16T02:49:59.727Z,97689.20
2018-12-16T02:52:26.950Z,97684.42
2018-12-16T02:54:53.710Z,97678.49
2018-12-16T02:57:20.177Z,97680.66
2018-12-16T02:59:46.667Z,97684.48
2018-12-16T03:02:13.150Z,97687.31
2018-12-16T03:04:39.693Z,97682.22
2018-12-16T03:07:06.242Z,97684.83
2018-12-16T03:09:32.851Z,97697.50
2018-12-16T03:11:59.332Z,97691.70
2018-12-16T03:14:25.877Z,97700.37
2018-12-16T03:16:52.432Z,97700.45
2018-12-16T03:19:18.984Z,97694.10
2018-12-16T03:21:46.189Z,97697.36
2018-12-16T03:24:12.735Z,97695.91
2018-12-16T03:26:39.467Z,97695.06
2018-12-16T03:29:06.090Z,97690.73
2018-12-16T03:31:32.597Z,97686.43
2018-12-16T03:33:59.165Z,97681.58
2018-12-16T03:36:25.776Z,97676.44
2018-12-16T03:38:52.332Z,97667.61
2018-12-16T03:41:18.808Z,97672.73
2018-12-16T03:43:45.307Z,97671.44
2018-12-16T03:46:11.843Z,97663.05
2018-12-16T03:48:38.651Z,97666.00
2018-12-16T03:51:05.116Z,97655.02
2018-12-16T03:53:31.750Z,97660.61
2018-12-16T03:55:58.198Z,97651.39
2018-12-16T03:58:24.802Z,97655.19
2018-12-16T04:00:51.295Z,97648.91
2018-12-16T04:03:17.739Z,97642.86
2018-12-16T04:05:44.210Z,97647.09
2018-12-16T04:08:10.781Z,97653.62
2018-12-16T04:10:37.239Z,97657.77
2018-12-16T04:13:03.729Z,97657.30
2018-12-16T04:15:30.246Z,97654.19
2018-12-16T04:17:57.006Z,97657.30
2018-12-16T04:20:23.521Z,97662.88
2018-12-16T04:22:51.394Z,97669.41
2018-12-16T04:25:19.215Z,97664.71
2018-12-16T04:27:46.346Z,97670.78
2018-12-16T04:30:13.850Z,97670.48
2018-12-16T04:32:41.619Z,97676.55
2018-12-16T04:35:09.130Z,97671.77
2018-12-16T04:37:37.212Z,97669.39
2018-12-16T04:40:05.502Z,97662.22
2018-12-16T04:42:33.271Z,97669.02
2018-12-16T04:45:01.437Z,97673.93
2018-12-16T04:47:28.387Z,97677.99
2018-12-16T04:49:57.218Z,97672.88
2018-12-16T04:52:24.941Z,97680.41
2018-12-16T04:57:26.293Z,97677.30
2018-12-16T04:59:54.739Z,97668.91
2018-12-16T05:02:22.731Z,97673.08
2018-12-16T05:04:49.184Z,97666.44
2018-12-16T05:07:18.895Z,97657.76
2018-12-16T05:09:48.001Z,97656.04
2018-12-16T05:12:16.249Z,97655.13
2018-12-16T05:14:43.714Z,97652.69
2018-12-16T05:17:10.491Z,97654.70
2018-12-16T05:19:38.224Z,97655.50
2018-12-16T05:22:06.211Z,97657.48
2018-12-16T05:24:34.910Z,97660.25
2018-12-16T05:27:02.892Z,97654.06
2018-12-16T05:29:29.707Z,97649.11
2018-12-16T05:31:57.775Z,97648.76
2018-12-16T05:34:25.551Z,97646.19
2018-12-16T05:36:56.129Z,97652.45
2018-12-16T05:39:23.951Z,97649.11
2018-12-16T05:41:54.914Z,97645.91
2018-12-16T05:44:22.043Z,97645.52
2018-12-16T05:46:49.294Z,97640.04
2018-12-16T05:49:16.600Z,97636.23
2018-12-16T05:51:43.396Z,97631.55
2018-12-16T05:54:12.389Z,97630.64
2018-12-16T05:56:40.358Z,97630.33
2018-12-16T05:59:08.549Z,97629.20
2018-12-16T06:01:36.517Z,97634.10
2018-12-16T06:04:04.294Z,97629.31
2018-12-16T06:06:32.242Z,97630.27
2018-12-16T06:09:00.013Z,97630.59
2018-12-16T06:11:27.311Z,97625.81
2018-12-16T06:13:55.123Z,97620.73
2018-12-16T06:16:23.315Z,97624.17
2018-12-16T06:18:49.908Z,97628.91
2018-12-16T06:21:17.960Z,97619.91
2018-12-16T06:23:45.462Z,97619.95
2018-12-16T06:26:12.777Z,97619.95
2018-12-16T06:28:40.051Z,97617.63
2018-12-16T06:31:08.570Z,97622.30
2018-12-16T06:33:36.449Z,97612.25
2018-12-16T06:36:04.183Z,97611.38
2018-12-16T06:38:31.422Z,97614.34
2018-12-16T06:40:58.892Z,97617.90
2018-12-16T06:43:26.468Z,97622.28
2018-12-16T06:45:53.735Z,97625.15
2018-12-16T06:48:21.860Z,97627.89
2018-12-16T06:50:49.050Z,97628.95
2018-12-16T06:53:16.056Z,97626.66
2018-12-16T06:55:44.284Z,97625.76
2018-12-16T06:58:12.119Z,97633.58
2018-12-16T07:00:39.490Z,97626.44
2018-12-16T07:05:37.493Z,97624.80
2018-12-16T07:08:04.008Z,97626.70
2018-12-16T07:10:30.488Z,97632.92
2018-12-16T07:12:56.993Z,97633.55
2018-12-16T07:15:23.679Z,97629.97
2018-12-16T07:17:50.160Z,97637.02
2018-12-16T07:20:16.656Z,97639.95
2018-12-16T07:22:43.801Z,97642.00
2018-12-16T07:25:10.251Z,97646.11
2018-12-16T07:27:36.714Z,97653.37
2018-12-16T07:30:06.230Z,97648.29
2018-12-16T07:32:37.572Z,97632.17
2018-12-16T07:35:06.875Z,97633.53
2018-12-16T07:37:34.287Z,97628.79
2018-12-16T07:40:00.973Z,97634.20
2018-12-16T07:42:28.257Z,97636.52
2018-12-16T07:44:55.707Z,97635.70
2018-12-16T07:47:24.912Z,97636.38
2018-12-16T07:49:51.527Z,97636.25
2018-12-16T07:52:18.735Z,97630.34
2018-12-16T07:54:47.885Z,97624.11
2018-12-16T07:57:14.718Z,97625.13
2018-12-16T07:59:42.301Z,97627.83
2018-12-16T08:02:10.203Z,97619.50
2018-12-16T08:04:37.374Z,97625.34
2018-12-16T08:07:04.828Z,97625.30
2018-12-16T08:09:34.008Z,97622.55
2018-12-16T08:12:01.096Z,97621.37
2018-12-16T08:14:27.670Z,97616.41
2018-12-16T08:16:55.706Z,97615.48
2018-12-16T08:19:22.222Z,97610.52
2018-12-16T08:21:48.796Z,97607.43
2018-12-16T08:24:15.363Z,97607.34
2018-12-16T08:26:41.890Z,97615.21
2018-12-16T08:29:08.361Z,97620.52
2018-12-16T08:31:35.285Z,97624.83
2018-12-16T08:34:01.755Z,97624.36
2018-12-16T08:36:28.277Z,97629.45
2018-12-16T08:38:54.850Z,97627.10
2018-12-16T08:41:21.324Z,97623.69
2018-12-16T08:43:47.843Z,97621.82
2018-12-16T08:46:14.358Z,97625.13
2018-12-16T08:48:40.811Z,97623.11
2018-12-16T08:51:07.425Z,97614.23
2018-12-16T08:53:33.918Z,97614.95
2018-12-16T08:56:00.453Z,97612.38
2018-12-16T08:58:26.925Z,97610.61
2018-12-16T09:00:53.474Z,97603.00
2018-12-16T09:03:20.179Z,97598.73
2018-12-16T09:05:46.697Z,97599.34
2018-12-16T09:08:13.159Z,97601.11
2018-12-16T09:10:39.627Z,97588.77
2018-12-16T09:13:06.154Z,97584.78
2018-12-16T09:15:32.606Z,97596.40
2018-12-16T09:17:59.051Z,97600.62
2018-12-16T09:20:25.582Z,97609.24
2018-12-16T09:22:52.198Z,97607.41
2018-12-16T09:25:18.750Z,97605.38
2018-12-16T09:27:45.431Z,97599.66
2018-12-16T09:30:12.160Z,97591.08
2018-12-16T09:32:38.610Z,97596.19
2018-12-16T09:35:05.068Z,97583.91
2018-12-16T09:37:31.530Z,97583.69
2018-12-16T09:39:58.117Z,97574.46
2018-12-16T09:42:24.678Z,97567.06
2018-12-16T09:44:51.191Z,97568.56
2018-12-16T09:47:17.661Z,97570.94
2018-12-16T09:49:44.609Z,97570.90
2018-12-16T09:52:11.099Z,97564.48
2018-12-16T09:54:44.046Z,97565.85
2018-12-16T09:57:06.188Z,97557.05
2018-12-16T09:59:32.637Z,97547.92
2018-12-16T10:01:59.110Z,97544.37
2018-12-16T10:04:25.738Z,97550.23
2018-12-16T10:06:52.452Z,97548.56
2018-12-16T10:09:19.498Z,97545.98
2018-12-16T10:11:46.337Z,97548.64
2018-12-16T10:14:12.818Z,97550.06
2018-12-16T10:16:41.835Z,97549.55
2018-12-16T10:19:08.402Z,97548.34
2018-12-16T10:21:34.937Z,97544.75
2018-12-16T10:24:01.365Z,97547.66
2018-12-16T10:26:27.902Z,97547.84
2018-12-16T10:28:54.347Z,97552.06
2018-12-16T10:31:20.790Z,97543.94
2018-12-16T10:33:47.255Z,97539.19
2018-12-16T10:36:13.697Z,97545.84
2018-12-16T10:38:40.128Z,97545.03
2018-12-16T10:41:06.570Z,97536.16
2018-12-16T10:43:33.038Z,97516.45
2018-12-16T10:45:59.474Z,97497.70
2018-12-16T10:48:25.957Z,97494.49
2018-12-16T10:50:52.404Z,97501.33
2018-12-16T10:53:18.840Z,97503.31
2018-12-16T10:55:45.273Z,97515.92
2018-12-16T10:58:11.706Z,97520.88
2018-12-16T11:00:38.144Z,97530.87
2018-12-16T11:03:04.760Z,97534.03
2018-12-16T11:05:31.214Z,97529.88
2018-12-16T11:07:57.633Z,97514.41
2018-12-16T11:10:24.107Z,97499.53
2018-12-16T11:12:50.551Z,97486.72
2018-12-16T11:15:17.039Z,97505.05
2018-12-16T11:17:43.511Z,97500.10
2018-12-16T11:20:09.947Z,97501.26
2018-12-16T11:22:36.416Z,97497.12
2018-12-16T11:25:05.831Z,97483.00
2018-12-16T11:27:31.356Z,97478.93
2018-12-16T11:29:57.769Z,97478.37
2018-12-16T11:32:24.278Z,97479.64
2018-12-16T11:34:50.728Z,97471.89
2018-12-16T11:37:17.157Z,97470.59
2018-12-16T11:39:43.634Z,97450.34
2018-12-16T11:42:10.075Z,97444.87
2018-12-16T11:44:36.506Z,97439.06
2018-12-16T11:47:02.950Z,97440.68
2018-12-16T11:49:29.415Z,97444.67
2018-12-16T11:51:55.853Z,97458.87
2018-12-16T11:54:22.328Z,97467.61
2018-12-16T11:56:48.747Z,97460.58
2018-12-16T11:59:15.181Z,97450.38
2018-12-16T12:01:41.629Z,97474.23
2018-12-16T12:04:08.060Z,97489.48
2018-12-16T12:06:34.497Z,97485.37
2018-12-16T12:09:00.942Z,97472.73
2018-12-16T12:11:27.380Z,97473.03
2018-12-16T12:13:53.798Z,97469.98
2018-12-16T12:16:20.242Z,97468.40
2018-12-16T12:18:46.665Z,97461.03
2018-12-16T12:21:13.085Z,97465.17
2018-12-16T12:23:39.552Z,97465.91
2018-12-16T12:26:05.991Z,97465.01
2018-12-16T12:28:32.429Z,97465.61
2018-12-16T12:30:59.098Z,97466.72
2018-12-16T12:33:25.569Z,97474.19
2018-12-16T12:35:52.239Z,97488.58
2018-12-16T12:38:18.683Z,97481.17
2018-12-16T12:40:45.137Z,97469.42
2018-12-16T12:43:11.579Z,97475.27
2018-12-16T12:45:38.028Z,97480.23
2018-12-16T12:48:04.603Z,97469.09
2018-12-16T12:50:31.029Z,97459.13
2018-12-16T12:52:57.826Z,97459.05
2018-12-16T12:55:26.991Z,97459.20
2018-12-16T12:57:54.115Z,97460.81
2018-12-16T13:00:20.946Z,97453.19
2018-12-16T13:02:48.170Z,97455.79
2018-12-16T13:05:15.891Z,97445.30
2018-12-16T13:07:42.462Z,97438.34
2018-12-16T13:10:08.904Z,97435.08
2018-12-16T13:12:35.672Z,97438.31
2018-12-16T13:15:02.116Z,97447.94
2018-12-16T13:17:28.554Z,97451.64
2018-12-16T13:19:55.239Z,97461.18
2018-12-16T13:22:21.720Z,97466.35
2018-12-16T13:24:48.155Z,97465.58
2018-12-16T13:27:14.589Z,97475.00
2018-12-16T13:29:41.043Z,97474.27
2018-12-16T13:32:07.476Z,97467.51
2018-12-16T13:34:33.899Z,97459.38
2018-12-16T13:37:00.341Z,97452.88
2018-12-16T13:39:26.773Z,97460.14
2018-12-16T13:41:53.204Z,97459.03
2018-12-16T13:44:19.660Z,97455.99
2018-12-16T13:46:46.111Z,97461.11
2018-12-16T13:49:12.575Z,97468.26
2018-12-16T13:51:39.019Z,97475.84
2018-12-16T13:54:05.491Z,97477.31
2018-12-16T13:56:31.972Z,97471.97
2018-12-16T13:58:58.421Z,97474.23
2018-12-16T14:01:27.597Z,97478.49
2018-12-16T14:03:54.051Z,97485.59
2018-12-16T14:06:20.516Z,97497.73
2018-12-16T14:08:47.080Z,97502.05
2018-12-16T14:11:13.518Z,97511.19
2018-12-16T14:13:40.002Z,97508.64
2018-12-16T14:16:06.729Z,97504.22
2018-12-16T14:18:37.614Z,97501.04
2018-12-16T14:21:04.120Z,97493.84
2018-12-16T14:23:30.544Z,97497.46
2018-12-16T14:25:58.798Z,97496.42
2018-12-16T14:28:25.247Z,97487.53
2018-12-16T14:30:51.709Z,97488.78
2018-12-16T14:33:18.260Z,97488.89
2018-12-16T14:35:46.560Z,97486.19
2018-12-16T14:38:13.059Z,97488.05
2018-12-16T14:40:39.526Z,97489.73
2018-12-16T14:43:05.974Z,97490.49
2018-12-16T14:48:07.931Z,97484.49
2018-12-16T14:50:38.819Z,97489.22
2018-12-16T14:53:08.993Z,97504.71
2018-12-16T14:55:43.870Z,97506.76
2018-12-16T14:58:11.371Z,97506.09
2018-12-16T15:00:38.117Z,97514.49
2018-12-16T15:03:05.297Z,97508.27
2018-12-16T15:05:32.280Z,97507.98
2018-12-16T15:07:58.710Z,97518.19
2018-12-16T15:10:25.155Z,97505.33
2018-12-16T15:12:51.623Z,97511.51
2018-12-16T15:15:18.071Z,97502.25
2018-12-16T15:17:44.542Z,97498.03
2018-12-16T15:20:11.002Z,97500.46
2018-12-16T15:22:37.442Z,97494.52
2018-12-16T15:25:03.896Z,97491.65
2018-12-16T15:27:30.388Z,97493.81
2018-12-16T15:29:57.416Z,97492.57
2018-12-16T15:32:23.874Z,97504.48
2018-12-16T15:34:50.385Z,97505.29
2018-12-16T15:37:16.825Z,97491.77
2018-12-16T15:39:43.278Z,97486.45
2018-12-16T15:42:09.742Z,97487.39
2018-12-16T15:44:36.807Z,97484.64
2018-12-16T15:47:03.269Z,97493.49
2018-12-16T15:49:29.800Z,97494.94
2018-12-16T15:51:56.251Z,97491.59
2018-12-16T15:54:22.720Z,97500.14
2018-12-16T15:56:49.183Z,97514.71
2018-12-16T15:59:16.315Z,97509.34
2018-12-16T16:01:43.303Z,97519.67
2018-12-16T16:04:09.815Z,97504.53
2018-12-16T16:06:36.733Z,97503.56
2018-12-16T16:09:03.191Z,97508.87
2018-12-16T16:11:29.675Z,97520.16
2018-12-16T16:13:56.152Z,97524.21
2018-12-16T16:18:54.147Z,97512.89
2018-12-16T16:21:20.616Z,97520.33
2018-12-16T16:23:47.581Z,97527.78
2018-12-16T16:26:16.360Z,97519.28
2018-12-16T16:28:42.588Z,97527.08
2018-12-16T16:31:09.034Z,97529.62
2018-12-16T16:33:35.503Z,97529.56
2018-12-16T16:36:01.977Z,97524.77
2018-12-16T16:38:28.458Z,97515.92
2018-12-16T16:40:54.971Z,97513.44
2018-12-16T16:43:21.705Z,97516.47
2018-12-16T16:45:48.165Z,97509.79
2018-12-16T16:48:14.768Z,97498.58
2018-12-16T16:50:41.240Z,97494.05
2018-12-16T16:53:08.568Z,97504.92
2018-12-16T16:55:35.031Z,97512.88
2018-12-16T16:58:01.468Z,97518.52
2018-12-16T17:00:27.930Z,97518.53
2018-12-16T17:02:54.400Z,97524.11
2018-12-16T17:05:20.868Z,97524.73
2018-12-16T17:07:47.338Z,97528.08
2018-12-16T17:10:13.950Z,97527.05
2018-12-16T17:12:40.413Z,97512.20
2018-12-16T17:15:06.876Z,97522.69
2018-12-16T17:17:39.623Z,97523.78
2018-12-16T17:20:06.071Z,97528.12
2018-12-16T17:22:32.546Z,97529.66
2018-12-16T17:24:59.073Z,97530.72
2018-12-16T17:27:25.520Z,97528.17
2018-12-16T17:29:51.987Z,97538.92
2018-12-16T17:32:18.480Z,97530.91
2018-12-16T17:34:44.941Z,97533.34
2018-12-16T17:37:11.388Z,97529.38
2018-12-16T17:39:37.886Z,97542.80
2018-12-16T17:42:04.324Z,97526.80
2018-12-16T17:44:30.766Z,97540.42
2018-12-16T17:46:57.294Z,97516.59
2018-12-16T17:49:23.761Z,97522.38
2018-12-16T17:51:50.247Z,97519.17
2018-12-16T17:54:16.725Z,97518.82
2018-12-16T17:56:43.315Z,97516.23
2018-12-16T17:59:10.117Z,97520.56
2018-12-16T18:01:36.595Z,97518.00
2018-12-16T18:04:03.061Z,97521.38
2018-12-16T18:06:29.507Z,97531.28
2018-12-16T18:08:56.094Z,97533.52
2018-12-16T18:11:22.767Z,97530.81
2018-12-16T18:13:49.252Z,97532.73
2018-12-16T18:16:15.779Z,97539.53
2018-12-16T18:18:42.254Z,97536.70
2018-12-16T18:21:08.787Z,97540.95
2018-12-16T18:23:35.293Z,97540.11
2018-12-16T18:26:01.758Z,97545.99
2018-12-16T18:28:28.535Z,97560.45
2018-12-16T18:30:55.103Z,97554.13
2018-12-16T18:33:21.596Z,97569.24
2018-12-16T18:35:48.098Z,97576.57
2018-12-16T18:38:14.596Z,97582.66
2018-12-16T18:40:42.906Z,97574.66
2018-12-16T18:43:10.771Z,97586.31
2018-12-16T18:45:37.242Z,97585.73
2018-12-16T18:48:03.823Z,97590.19
2018-12-16T18:50:32.209Z,97601.70
2018-12-16T18:52:59.362Z,97604.28
2018-12-16T18:55:25.830Z,97601.57
2018-12-16T18:57:52.299Z,97590.59
2018-12-16T19:00:21.899Z,97585.39
2018-12-16T19:02:48.359Z,97580.05
2018-12-16T19:05:14.866Z,97586.21
2018-12-16T19:07:42.028Z,97583.56
2018-12-16T19:10:08.477Z,97584.73
2018-12-16T19:12:35.157Z,97576.39
2018-12-16T19:15:01.656Z,97582.77
2018-12-16T19:17:28.129Z,97586.98
2018-12-16T19:19:54.582Z,97586.20
2018-12-16T19:22:21.083Z,97580.08
2018-12-16T19:24:47.559Z,97580.79
2018-12-16T19:27:13.998Z,97583.00
2018-12-16T19:29:40.545Z,97581.03
2018-12-16T19:32:07.020Z,97584.89
2018-12-16T19:34:35.008Z,97585.70
2018-12-16T19:37:01.461Z,97580.19
2018-12-16T19:39:27.912Z,97580.06
2018-12-16T19:41:55.187Z,97583.37
2018-12-16T19:44:21.707Z,97580.89
2018-12-16T19:46:48.455Z,97583.86
2018-12-16T19:49:14.963Z,97585.59
2018-12-16T19:51:41.960Z,97580.56
2018-12-16T19:54:08.435Z,97583.96
2018-12-16T19:56:35.379Z,97586.20
2018-12-16T19:59:02.374Z,97582.42
2018-12-16T20:01:28.984Z,97587.03
2018-12-16T20:03:55.437Z,97579.37
2018-12-16T20:06:21.946Z,97586.88
2018-12-16T20:08:48.866Z,97595.23
2018-12-16T20:11:16.094Z,97584.65
2018-12-16T20:13:45.052Z,97595.95
2018-12-16T20:16:12.148Z,97602.75
2018-12-16T20:18:39.140Z,97607.23
2018-12-16T20:21:05.664Z,97616.52
2018-12-16T20:23:34.880Z,97623.67
2018-12-16T20:26:01.645Z,97617.10
2018-12-16T20:28:29.043Z,97610.16
2018-12-16T20:30:56.164Z,97607.20
2018-12-16T20:33:22.620Z,97607.77
2018-12-16T20:35:49.091Z,97616.37
2018-12-16T20:38:15.541Z,97608.16
2018-12-16T20:40:42.078Z,97604.16
2018-12-16T20:43:08.531Z,97603.09
2018-12-16T20:45:35.107Z,97609.86
2018-12-16T20:48:01.595Z,97612.84
2018-12-16T20:50:28.069Z,97608.36
2018-12-16T20:52:54.795Z,97624.44
2018-12-16T20:55:21.260Z,97633.52
2018-12-16T20:57:47.713Z,97634.36
2018-12-16T21:00:14.222Z,97638.02
2018-12-16T21:02:40.660Z,97632.41
2018-12-16T21:05:07.132Z,97628.89
2018-12-16T21:07:33.614Z,97632.80
2018-12-16T21:10:00.081Z,97638.56
2018-12-16T21:12:26.536Z,97632.02
2018-12-16T21:14:54.217Z,97636.74
2018-12-16T21:17:20.651Z,97635.22
2018-12-16T21:19:47.117Z,97632.73
2018-12-16T21:22:13.617Z,97634.72
2018-12-16T21:24:40.059Z,97620.73
2018-12-16T21:27:06.501Z,97623.28
2018-12-16T21:29:32.992Z,97636.25
2018-12-16T21:31:59.429Z,97636.14
2018-12-16T21:34:25.895Z,97647.19
2018-12-16T21:36:52.397Z,97636.81
2018-12-16T21:39:18.859Z,97642.27
2018-12-16T21:41:45.576Z,97645.66
2018-12-16T21:44:12.396Z,97634.51
2018-12-16T21:46:39.218Z,97632.63
2018-12-16T21:49:05.912Z,97626.27
2018-12-16T21:51:32.428Z,97630.34
2018-12-16T21:53:58.883Z,97636.23
2018-12-16T21:56:25.355Z,97637.69
2018-12-16T21:58:51.885Z,97639.30
2018-12-16T22:01:18.365Z,97646.78
2018-12-16T22:03:44.834Z,97649.73
2018-12-16T22:06:11.290Z,97648.03
2018-12-16T22:08:38.008Z,97658.00
2018-12-16T22:11:04.450Z,97650.55
2018-12-16T22:13:30.895Z,97643.18
2018-12-16T22:15:57.327Z,97638.44
2018-12-16T22:18:23.777Z,97625.13
2018-12-16T22:20:50.234Z,97626.31
2018-12-16T22:23:16.695Z,97627.88
2018-12-16T22:25:43.162Z,97633.13
2018-12-16T22:28:09.959Z,97633.45
2018-12-16T22:30:36.389Z,97622.80
2018-12-16T22:33:02.812Z,97618.93
2018-12-16T22:35:29.291Z,97626.70
2018-12-16T22:37:55.735Z,97636.81
2018-12-16T22:40:22.192Z,97631.86
2018-12-16T22:42:52.309Z,97633.22
2018-12-16T22:45:20.498Z,97637.02
2018-12-16T22:47:46.925Z,97633.14
2018-12-16T22:50:13.412Z,97635.34
2018-12-16T22:52:41.227Z,97632.74
2018-12-16T22:55:07.718Z,97634.95
2018-12-16T22:57:34.181Z,97639.52
2018-12-16T23:00:00.658Z,97642.70
2018-12-16T23:02:30.774Z,97646.52
2018-12-16T23:04:57.269Z,97640.73
2018-12-16T23:07:23.720Z,97631.63
2018-12-16T23:09:50.202Z,97641.56
2018-12-16T23:12:16.679Z,97643.18
2018-12-16T23:14:43.156Z,97651.77
2018-12-16T23:17:09.618Z,97655.38
2018-12-16T23:19:36.534Z,97654.45
2018-12-16T23:22:02.989Z,97646.42
2018-12-16T23:24:29.431Z,97645.01
2018-12-16T23:26:55.898Z,97647.78
2018-12-16T23:29:22.334Z,97640.16
2018-12-16T23:31:48.783Z,97640.33
2018-12-16T23:34:15.257Z,97632.95
2018-12-16T23:36:43.647Z,97630.97
2018-12-16T23:39:10.643Z,97628.17
2018-12-16T23:41:37.113Z,97629.69
2018-12-16T23:44:03.560Z,97633.86
2018-12-16T23:46:30.003Z,97631.73
2018-12-16T23:48:56.465Z,97638.25
2018-12-16T23:51:22.937Z,97644.34
2018-12-16T23:53:49.469Z,97638.58
2018-12-16T23:56:15.958Z,97645.56
2018-12-16T23:58:42.419Z,97639.95
